createdAt,value
2017-03-21T00:00:03.412Z,0
2017-03-21T00:05:02.998Z,0
2017-03-21T00:10:02.717Z,0
2017-03-21T00:15:03.409Z,0
2017-03-21T00:20:03.008Z,0
2017-03-21T00:25:02.564Z,0
2017-03-21T00:30:03.168Z,0
2017-03-21T00:35:03.095Z,0
2017-03-21T00:40:02.904Z,0
2017-03-21T00:45:02.582Z,0
2017-03-21T00:50:03.328Z,0
2017-03-21T00:55:03.004Z,0
2017-03-21T01:00:02.593Z,0
2017-03-21T01:05:03.205Z,0
2017-03-21T01:10:03.010Z,0
2017-03-21T01:15:02.887Z,0
2017-03-21T01:20:02.627Z,0
2017-03-21T01:25:03.246Z,0
2017-03-21T01:30:02.779Z,0
2017-03-21T01:35:03.433Z,0
2017-03-21T01:40:03.173Z,0
2017-03-21T01:45:02.735Z,0
2017-03-21T01:50:03.479Z,0
2017-03-21T01:55:03.098Z,0
2017-03-21T02:00:02.705Z,0
2017-03-21T02:05:03.459Z,0
2017-03-21T02:10:03.167Z,0
2017-03-21T02:15:02.863Z,0
2017-03-21T02:20:02.623Z,0
2017-03-21T02:25:03.290Z,0
2017-03-21T02:30:03.011Z,0
2017-03-21T02:35:02.700Z,0
2017-03-21T02:40:02.510Z,0
2017-03-21T02:45:03.198Z,0
2017-03-21T02:50:02.885Z,0
2017-03-21T02:55:02.542Z,0
2017-03-21T03:00:03.341Z,0
2017-03-21T03:05:02.915Z,0
2017-03-21T03:10:02.552Z,0
2017-03-21T03:15:02.501Z,0
2017-03-21T03:20:03.137Z,0
2017-03-21T03:25:02.819Z,0
2017-03-21T03:30:02.514Z,0
2017-03-21T03:35:03.157Z,0
2017-03-21T03:40:02.887Z,0
2017-03-21T03:45:02.608Z,0
2017-03-21T03:50:03.445Z,0
2017-03-21T03:55:03.166Z,0
2017-03-21T04:00:02.830Z,0
2017-03-21T04:05:02.488Z,0
2017-03-21T04:10:03.180Z,0
2017-03-21T04:15:02.802Z,0
2017-03-21T04:20:03.435Z,0
2017-03-21T04:25:03.036Z,0
2017-03-21T04:30:02.622Z,0
2017-03-21T04:35:03.269Z,0
2017-03-21T04:40:02.887Z,0
2017-03-21T04:45:02.612Z,0
2017-03-21T04:50:03.322Z,0
2017-03-21T04:55:02.964Z,0
2017-03-21T05:00:02.568Z,0
2017-03-21T05:05:03.235Z,1
2017-03-21T05:10:02.886Z,3
2017-03-21T05:15:02.597Z,9
2017-03-21T05:20:03.232Z,10
2017-03-21T05:25:02.847Z,20
2017-03-21T05:30:02.539Z,24
2017-03-21T05:35:03.149Z,49
2017-03-21T05:40:02.883Z,142
2017-03-21T05:45:02.555Z,268
2017-03-21T05:50:03.156Z,413
2017-03-21T05:55:02.937Z,544
2017-03-21T06:00:02.539Z,667
2017-03-21T06:05:03.269Z,770
2017-03-21T06:10:02.843Z,905
2017-03-21T06:15:02.458Z,795
2017-03-21T06:20:03.203Z,930
2017-03-21T06:25:02.948Z,1000
2017-03-21T06:30:02.512Z,1000
2017-03-21T06:35:03.150Z,1000
2017-03-21T06:40:02.912Z,2000
2017-03-21T06:45:02.619Z,3000
2017-03-21T06:50:03.338Z,3000
2017-03-21T06:55:03.037Z,3000
2017-03-21T07:00:02.733Z,3000
2017-03-21T07:05:02.457Z,3000
2017-03-21T07:10:03.248Z,3000
2017-03-21T07:15:02.919Z,3000
2017-03-21T07:20:02.510Z,3000
2017-03-21T07:25:03.128Z,3000
2017-03-21T07:30:02.663Z,4000
2017-03-21T07:35:03.301Z,4000
2017-03-21T07:40:03.055Z,5000
2017-03-21T07:45:02.658Z,4000
2017-03-21T07:50:03.262Z,4000
2017-03-21T07:55:02.855Z,8000
2017-03-21T08:00:02.516Z,5000
2017-03-21T08:05:03.139Z,7000
2017-03-21T08:10:02.849Z,7000
2017-03-21T08:15:02.532Z,16000
2017-03-21T08:20:03.111Z,35000
2017-03-21T08:25:02.762Z,14000
2017-03-21T08:30:03.336Z,15000
2017-03-21T08:35:03.023Z,5000
2017-03-21T08:40:02.826Z,5000
2017-03-21T08:45:02.492Z,6000
2017-03-21T08:50:03.216Z,8000
2017-03-21T08:55:02.959Z,6000
2017-03-21T09:00:02.601Z,6000
2017-03-21T09:05:03.278Z,6000
2017-03-21T09:10:03.022Z,6000
2017-03-21T09:15:02.686Z,7000
2017-03-21T09:20:03.442Z,6000
2017-03-21T09:25:03.234Z,6000
2017-03-21T09:30:02.971Z,11000
2017-03-21T09:35:02.603Z,7000
2017-03-21T09:40:03.381Z,11000
2017-03-21T09:45:03.016Z,60000
2017-03-21T09:50:02.643Z,18000
2017-03-21T09:55:03.237Z,7000
2017-03-21T10:00:02.984Z,5000
2017-03-21T10:05:02.729Z,5000
2017-03-21T10:10:02.819Z,8000
2017-03-21T10:15:02.929Z,15000
2017-03-21T10:20:02.850Z,5000
2017-03-21T10:25:02.648Z,17000
2017-03-21T10:30:02.989Z,13000
2017-03-21T10:35:03.173Z,7000
2017-03-21T10:40:02.900Z,19000
2017-03-21T10:45:02.862Z,17000
2017-03-21T10:50:02.533Z,22000
2017-03-21T10:55:03.314Z,9000
2017-03-21T11:00:03.507Z,49000
2017-03-21T11:05:03.292Z,27000
2017-03-21T11:10:02.728Z,9000
2017-03-21T11:15:03.039Z,10000
2017-03-21T11:20:03.281Z,40000
2017-03-21T11:25:02.515Z,25000
2017-03-21T11:30:03.155Z,10000
2017-03-21T11:35:02.681Z,20000
2017-03-21T11:40:03.395Z,52000
2017-03-21T11:45:02.635Z,43000
2017-03-21T11:50:02.748Z,53000
2017-03-21T11:55:02.792Z,51000
2017-03-21T12:00:03.025Z,45000
2017-03-21T12:05:02.910Z,23000
2017-03-21T12:10:03.490Z,38000
2017-03-21T12:15:02.879Z,43000
2017-03-21T12:20:02.497Z,31000
2017-03-21T12:25:03.007Z,49000
2017-03-21T12:30:02.810Z,43000
2017-03-21T12:35:02.627Z,38000
2017-03-21T12:40:03.386Z,38000
2017-03-21T12:45:02.957Z,36000
2017-03-21T12:50:03.046Z,15000
2017-03-21T12:55:02.864Z,26000
2017-03-21T13:00:03.196Z,28000
2017-03-21T13:05:03.320Z,27000
2017-03-21T13:10:02.529Z,18000
2017-03-21T13:15:02.671Z,20000
2017-03-21T13:20:03.445Z,19000
2017-03-21T13:25:02.526Z,22000
2017-03-21T13:30:02.628Z,21000
2017-03-21T13:35:02.983Z,21000
2017-03-21T13:40:02.581Z,12000
2017-03-21T13:45:03.337Z,16000
2017-03-21T13:50:03.111Z,16000
2017-03-21T13:55:03.171Z,15000
2017-03-21T14:00:02.754Z,16000
2017-03-21T14:05:03.043Z,13000
2017-03-21T14:10:03.077Z,15000
2017-03-21T14:15:02.800Z,15000
2017-03-21T14:20:02.991Z,21000
2017-03-21T14:25:03.303Z,16000
2017-03-21T14:30:03.117Z,24000
2017-03-21T14:35:02.541Z,20000
2017-03-21T14:40:02.934Z,17000
2017-03-21T14:45:02.635Z,19000
2017-03-21T14:50:03.238Z,18000
2017-03-21T14:55:03.023Z,12000
2017-03-21T15:00:02.838Z,11000
2017-03-21T15:05:02.868Z,10000
2017-03-21T15:10:03.022Z,9000
2017-03-21T15:15:02.653Z,8000
2017-03-21T15:20:02.666Z,9000
2017-03-21T15:25:02.701Z,9000
2017-03-21T15:30:02.900Z,8000
2017-03-21T15:35:02.878Z,7000
2017-03-21T15:40:02.725Z,6000
2017-03-21T15:45:02.521Z,5000
2017-03-21T15:50:02.582Z,5000
2017-03-21T15:55:03.075Z,5000
2017-03-21T16:00:02.890Z,6000
2017-03-21T16:05:02.693Z,6000
2017-03-21T16:10:02.552Z,6000
2017-03-21T16:15:02.644Z,5000
2017-03-21T16:20:03.295Z,5000
2017-03-21T16:25:02.724Z,6000
2017-03-21T16:30:03.484Z,5000
2017-03-21T16:35:02.556Z,4000
2017-03-21T16:40:02.828Z,4000
2017-03-21T16:45:02.688Z,3000
2017-03-21T16:50:02.593Z,3000
2017-03-21T16:55:03.359Z,2000
2017-03-21T17:00:03.156Z,2000
2017-03-21T17:05:02.758Z,2000
2017-03-21T17:10:02.532Z,2000
2017-03-21T17:15:03.366Z,1000
2017-03-21T17:20:02.906Z,1000
2017-03-21T17:25:02.529Z,1000
2017-03-21T17:30:03.277Z,1000
2017-03-21T17:35:02.866Z,737
2017-03-21T17:40:02.517Z,475
2017-03-21T17:45:03.139Z,390
2017-03-21T17:50:02.810Z,168
2017-03-21T17:55:02.570Z,83
2017-03-21T18:00:03.212Z,85
2017-03-21T18:05:02.907Z,61
2017-03-21T18:10:02.673Z,30
2017-03-21T18:15:03.498Z,16
2017-03-21T18:20:03.223Z,6
2017-03-21T18:25:02.883Z,2
2017-03-21T18:30:02.611Z,0
2017-03-21T18:35:03.327Z,0
2017-03-21T18:40:03.084Z,0
2017-03-21T18:45:02.765Z,0
2017-03-21T18:50:03.350Z,0
2017-03-21T18:55:03.004Z,0
2017-03-21T19:00:02.705Z,0
2017-03-21T19:05:03.298Z,0
2017-03-21T19:10:02.933Z,0
2017-03-21T19:15:02.572Z,0
2017-03-21T19:20:03.167Z,0
2017-03-21T19:25:02.807Z,0
2017-03-21T19:30:02.472Z,0
2017-03-21T19:35:03.024Z,0
2017-03-21T19:40:02.815Z,0
2017-03-21T19:45:02.551Z,0
2017-03-21T19:50:03.118Z,0
2017-03-21T19:55:02.717Z,0
2017-03-21T20:00:03.469Z,0
2017-03-21T20:05:03.122Z,0
2017-03-21T20:10:02.865Z,0
2017-03-21T20:15:03.460Z,0
2017-03-21T20:20:03.111Z,0
2017-03-21T20:25:02.754Z,0
2017-03-21T20:30:03.445Z,0
2017-03-21T20:35:03.013Z,0
2017-03-21T20:40:02.744Z,0
2017-03-21T20:45:03.371Z,0
2017-03-21T20:50:02.977Z,0
2017-03-21T20:55:02.556Z,0
2017-03-21T21:00:03.189Z,0
2017-03-21T21:05:02.797Z,0
2017-03-21T21:10:02.497Z,0
2017-03-21T21:15:03.088Z,0
2017-03-21T21:20:02.802Z,0
2017-03-21T21:25:03.502Z,0
2017-03-21T21:30:03.291Z,0
2017-03-21T21:35:02.857Z,0
2017-03-21T21:40:03.462Z,0
2017-03-21T21:45:03.118Z,0
2017-03-21T21:50:02.772Z,0
2017-03-21T21:55:03.432Z,0
2017-03-21T22:00:03.121Z,0
2017-03-21T22:05:02.751Z,0
2017-03-21T22:10:03.466Z,0
2017-03-21T22:15:03.155Z,0
2017-03-21T22:20:02.988Z,0
2017-03-21T22:25:02.641Z,0
2017-03-21T22:30:03.252Z,0
2017-03-21T22:35:03.070Z,0
2017-03-21T22:40:02.874Z,0
2017-03-21T22:45:02.534Z,0
2017-03-21T22:50:03.214Z,0
2017-03-21T22:55:02.860Z,0
2017-03-21T23:00:02.507Z,0
2017-03-21T23:05:03.082Z,0
2017-03-21T23:10:02.828Z,0
2017-03-21T23:15:02.537Z,0
2017-03-21T23:20:03.507Z,0
2017-03-21T23:25:03.328Z,0
2017-03-21T23:30:03.070Z,0
2017-03-21T23:35:02.985Z,0
2017-03-21T23:40:02.710Z,0
2017-03-21T23:45:03.327Z,0
2017-03-21T23:50:03.005Z,0
2017-03-21T23:55:02.700Z,0
